createdAt,value
2022-10-17T00:01:10.951Z,4.57
2022-10-17T00:03:40.324Z,4.70
2022-10-17T00:06:14.196Z,4.47
2022-10-17T00:08:45.408Z,4.97
2022-10-17T00:11:21.999Z,4.85
2022-10-17T00:13:55.324Z,4.95
2022-10-17T00:16:39.543Z,4.43
2022-10-17T00:19:07.477Z,5.93
2022-10-17T00:21:35.189Z,5.20
2022-10-17T00:24:02.278Z,5.00
2022-10-17T00:26:32.521Z,7.30
2022-10-17T00:29:00.905Z,4.40
2022-10-17T00:31:30.767Z,4.93
2022-10-17T00:33:57.459Z,4.78
2022-10-17T00:36:29.781Z,4.72
2022-10-17T00:39:01.955Z,4.95
2022-10-17T00:41:34.500Z,5.82
2022-10-17T00:44:30.296Z,6.57
2022-10-17T00:47:04.092Z,5.03
2022-10-17T00:49:41.753Z,4.70
2022-10-17T00:52:33.573Z,4.85
2022-10-17T00:55:28.886Z,5.90
2022-10-17T00:58:11.377Z,5.05
2022-10-17T01:00:42.512Z,5.75
2022-10-17T01:03:09.696Z,5.03
2022-10-17T01:05:39.024Z,3.97
2022-10-17T01:08:26.219Z,4.78
2022-10-17T01:11:32.972Z,4.85
2022-10-17T01:14:24.078Z,4.50
2022-10-17T01:17:31.030Z,4.13
2022-10-17T01:21:23.698Z,6.45
2022-10-17T01:24:27.010Z,4.07
2022-10-17T01:27:21.640Z,4.78
2022-10-17T01:31:04.946Z,4.68
2022-10-17T01:34:00.897Z,4.88
2022-10-17T01:37:02.995Z,4.10
2022-10-17T01:39:59.332Z,4.10
2022-10-17T01:43:37.759Z,4.53
2022-10-17T01:46:36.846Z,4.18
2022-10-17T01:49:09.967Z,5.05
2022-10-17T01:52:21.789Z,4.28
2022-10-17T01:55:31.117Z,4.00
2022-10-17T01:58:22.243Z,4.63
2022-10-17T02:00:53.398Z,4.15
2022-10-17T02:03:23.730Z,4.15
2022-10-17T02:05:55.042Z,5.47
2022-10-17T02:08:50.763Z,3.88
2022-10-17T02:11:29.611Z,5.03
2022-10-17T02:14:32.783Z,5.68
2022-10-17T02:17:34.133Z,5.68
2022-10-17T02:20:44.125Z,4.18
2022-10-17T02:23:50.792Z,4.25
2022-10-17T02:26:40.185Z,5.07
2022-10-17T02:29:20.941Z,4.75
2022-10-17T02:32:11.823Z,4.78
2022-10-17T02:34:49.234Z,4.40
2022-10-17T02:37:27.743Z,5.22
2022-10-17T02:40:02.075Z,4.35
2022-10-17T02:42:31.147Z,4.40
2022-10-17T02:45:02.922Z,4.30
2022-10-17T02:48:00.749Z,4.53
2022-10-17T02:51:04.148Z,4.10
2022-10-17T02:54:23.121Z,3.42
2022-10-17T02:57:13.440Z,3.78
2022-10-17T02:59:55.149Z,4.55
2022-10-17T03:02:22.139Z,3.55
2022-10-17T03:04:48.919Z,3.78
2022-10-17T03:07:15.822Z,4.15
2022-10-17T03:09:42.609Z,3.47
2022-10-17T03:12:09.660Z,4.95
2022-10-17T03:14:36.770Z,4.13
2022-10-17T03:17:03.598Z,2.97
2022-10-17T03:19:30.355Z,3.47
2022-10-17T03:21:57.189Z,3.65
2022-10-17T03:24:23.934Z,3.75
2022-10-17T03:26:50.653Z,4.03
2022-10-17T03:29:17.385Z,3.88
2022-10-17T03:31:44.171Z,4.38
2022-10-17T03:34:10.926Z,3.28
2022-10-17T03:36:38.971Z,3.72
2022-10-17T03:39:05.757Z,3.45
2022-10-17T03:41:32.514Z,3.60
2022-10-17T03:43:59.855Z,4.35
2022-10-17T03:46:29.670Z,3.55
2022-10-17T03:48:56.289Z,3.60
2022-10-17T03:51:35.101Z,3.78
2022-10-17T03:54:05.570Z,4.03
2022-10-17T03:56:32.320Z,3.78
2022-10-17T03:59:02.483Z,3.55
2022-10-17T04:01:29.253Z,4.13
2022-10-17T04:04:06.235Z,4.13
2022-10-17T04:06:37.845Z,3.75
2022-10-17T04:09:07.340Z,3.97
2022-10-17T04:11:34.643Z,3.80
2022-10-17T04:14:01.675Z,3.47
2022-10-17T04:16:29.421Z,4.63
2022-10-17T04:18:59.507Z,3.78
2022-10-17T04:21:29.350Z,4.72
2022-10-17T04:24:01.050Z,3.85
2022-10-17T04:26:28.266Z,4.10
2022-10-17T04:28:55.347Z,4.13
2022-10-17T04:31:25.265Z,4.55
2022-10-17T04:33:52.830Z,4.03
2022-10-17T04:36:34.822Z,3.95
2022-10-17T05:21:39.803Z,3.50
2022-10-17T05:35:01.459Z,3.28
2022-10-17T05:48:17.120Z,3.42
2022-10-17T13:36:36.732Z,10.25
2022-10-17T13:39:16.885Z,10.90
2022-10-17T13:41:47.555Z,9.57
2022-10-17T13:44:22.027Z,10.45
2022-10-17T13:46:50.609Z,11.60
2022-10-17T13:49:32.374Z,11.77
2022-10-17T13:52:03.622Z,11.57
2022-10-17T13:54:59.801Z,12.55
2022-10-17T13:57:34.067Z,11.80
2022-10-17T14:00:27.729Z,12.65
2022-10-17T14:02:54.809Z,14.05
2022-10-17T14:05:28.028Z,13.38
2022-10-17T14:08:21.754Z,13.17
2022-10-17T14:10:56.152Z,15.15
2022-10-17T14:13:35.051Z,14.05
2022-10-17T14:16:04.570Z,13.13
2022-10-17T14:18:38.052Z,24.15
2022-10-17T14:21:36.943Z,17.58
2022-10-17T14:24:24.183Z,14.85
2022-10-17T14:27:11.677Z,15.15
2022-10-17T14:29:55.146Z,15.43
2022-10-17T14:32:22.956Z,16.33
2022-10-17T14:35:05.505Z,15.50
2022-10-17T14:37:48.907Z,15.68
2022-10-17T14:40:25.913Z,15.98
2022-10-17T14:42:58.265Z,16.20
2022-10-17T14:45:39.638Z,16.48
2022-10-17T14:48:21.470Z,16.40
2022-10-17T14:51:19.468Z,16.45
2022-10-17T14:54:30.946Z,18.33
2022-10-17T14:56:57.633Z,15.93
2022-10-17T14:59:53.444Z,17.67
2022-10-17T15:02:25.871Z,17.52
2022-10-17T15:04:55.755Z,16.75
2022-10-17T15:07:24.374Z,17.88
2022-10-17T15:09:54.135Z,17.08
2022-10-17T15:12:26.409Z,17.25
2022-10-17T15:14:54.107Z,19.58
2022-10-17T15:17:34.434Z,20.33
2022-10-17T15:20:01.266Z,18.80
2022-10-17T15:22:31.275Z,20.08
2022-10-17T15:24:58.200Z,19.85
2022-10-17T15:27:27.246Z,20.52
2022-10-17T15:29:54.095Z,20.08
2022-10-17T15:32:25.532Z,21.23
2022-10-17T15:34:52.528Z,19.90
2022-10-17T15:37:25.288Z,20.40
2022-10-17T15:39:56.448Z,20.40
2022-10-17T15:42:33.639Z,21.15
2022-10-17T15:45:00.439Z,20.00
2022-10-17T15:47:36.859Z,21.67
2022-10-17T15:50:08.683Z,21.58
2022-10-17T15:52:35.995Z,21.65
2022-10-17T15:55:05.331Z,21.00
2022-10-17T15:57:40.601Z,21.13
2022-10-17T16:00:20.750Z,21.60
2022-10-17T16:02:49.303Z,21.15
2022-10-17T16:05:26.896Z,20.70
2022-10-17T16:07:54.202Z,21.35
2022-10-17T16:10:22.849Z,20.23
2022-10-17T16:12:50.611Z,21.27
2022-10-17T16:15:27.791Z,20.63
2022-10-17T16:18:00.394Z,20.75
2022-10-17T16:20:28.548Z,19.52
2022-10-17T16:23:00.821Z,18.98
2022-10-17T16:25:31.027Z,19.30
2022-10-17T16:28:01.028Z,19.35
2022-10-17T16:30:32.808Z,19.55
2022-10-17T16:32:59.867Z,17.90
2022-10-17T16:35:33.315Z,18.55
2022-10-17T16:38:05.540Z,18.35
2022-10-17T16:40:32.355Z,18.73
2022-10-17T16:42:58.947Z,18.90
2022-10-17T16:45:27.913Z,18.83
2022-10-17T16:47:55.678Z,19.13
2022-10-17T16:50:25.452Z,19.25
2022-10-17T16:52:52.227Z,18.35
2022-10-17T16:55:19.503Z,16.65
2022-10-17T16:57:49.706Z,14.95
2022-10-17T17:00:20.013Z,10.10
2022-10-17T17:02:49.868Z,10.68
2022-10-17T17:05:22.279Z,9.13
2022-10-17T17:07:55.921Z,8.25
2022-10-17T17:10:25.835Z,6.20
2022-10-17T17:12:59.544Z,5.60
2022-10-17T17:15:30.093Z,6.35
2022-10-17T17:17:57.947Z,5.63
2022-10-17T17:20:33.944Z,5.40
2022-10-17T17:23:06.112Z,6.32
2022-10-17T17:25:35.983Z,6.57
2022-10-17T17:28:03.972Z,7.15
2022-10-17T17:30:30.739Z,5.95
2022-10-17T17:32:57.504Z,7.75
2022-10-17T17:35:24.190Z,7.53
2022-10-17T17:37:51.039Z,7.60
2022-10-17T17:40:18.013Z,7.78
2022-10-17T17:42:50.601Z,8.15
2022-10-17T17:45:17.576Z,8.60
2022-10-17T17:47:44.286Z,8.85
2022-10-17T17:50:11.035Z,8.15
2022-10-17T17:52:40.086Z,9.20
2022-10-17T17:55:07.857Z,9.07
2022-10-17T17:57:34.603Z,8.80
2022-10-17T18:00:01.351Z,9.25
2022-10-17T18:02:28.287Z,9.50
2022-10-17T18:05:04.912Z,9.02
2022-10-17T18:07:31.694Z,8.57
2022-10-17T18:10:01.386Z,8.95
2022-10-17T18:12:29.537Z,8.95
2022-10-17T18:14:56.446Z,9.27
2022-10-17T18:17:23.281Z,8.50
2022-10-17T18:19:49.942Z,6.75
2022-10-17T18:22:16.907Z,7.47
2022-10-17T18:24:46.251Z,6.40
2022-10-17T18:35:21.226Z,7.85
2022-10-17T18:37:55.279Z,8.32
2022-10-17T18:54:06.672Z,8.15
2022-10-17T18:59:15.843Z,8.95
2022-10-17T19:04:26.932Z,8.98
2022-10-17T19:17:40.128Z,8.70
2022-10-17T19:40:51.054Z,11.75
2022-10-17T19:43:32.321Z,11.05
2022-10-17T19:57:36.347Z,13.63
2022-10-17T20:00:05.013Z,12.95
2022-10-17T20:02:32.403Z,12.70
2022-10-17T20:05:17.668Z,13.15
2022-10-17T20:13:34.718Z,12.75
2022-10-17T20:21:40.682Z,13.77
2022-10-17T20:29:36.520Z,12.68
2022-10-17T20:37:26.377Z,12.27
2022-10-17T20:45:19.895Z,12.48
2022-10-17T20:50:42.962Z,12.40
2022-10-17T20:53:36.035Z,12.00
2022-10-17T20:56:11.543Z,11.45
2022-10-17T20:58:38.372Z,12.07
2022-10-17T21:01:10.697Z,12.80
2022-10-17T21:03:42.369Z,12.68
2022-10-17T21:06:13.240Z,11.95
2022-10-17T21:08:40.249Z,11.63
2022-10-17T21:11:18.748Z,12.23
2022-10-17T21:14:03.616Z,12.95
2022-10-17T21:16:37.839Z,13.10
2022-10-17T21:21:37.940Z,11.43
2022-10-17T21:24:13.549Z,12.48
2022-10-17T21:26:47.887Z,12.60
2022-10-17T21:29:17.814Z,12.27
2022-10-17T21:31:47.893Z,12.30
2022-10-17T21:34:23.938Z,12.63
2022-10-17T21:36:53.938Z,13.00
2022-10-17T21:39:22.951Z,13.77
2022-10-17T21:41:49.694Z,13.55
2022-10-17T21:44:27.248Z,14.50
2022-10-17T21:46:57.685Z,14.10
2022-10-17T21:49:25.658Z,14.48
2022-10-17T21:51:53.562Z,13.77
2022-10-17T21:54:25.674Z,15.68
2022-10-17T21:56:53.078Z,15.25
2022-10-17T21:59:19.830Z,16.17
2022-10-17T22:01:46.988Z,16.17
2022-10-17T22:04:19.542Z,17.60
2022-10-17T22:06:51.145Z,16.80
2022-10-17T22:09:25.897Z,17.30
2022-10-17T22:11:58.662Z,16.58
2022-10-17T22:14:27.660Z,17.08
2022-10-17T22:16:55.478Z,17.23
2022-10-17T22:19:26.526Z,16.17
2022-10-17T22:21:57.831Z,15.93
2022-10-17T22:24:24.622Z,16.05
2022-10-17T22:26:51.842Z,15.90
2022-10-17T22:29:18.654Z,15.70
2022-10-17T22:31:48.369Z,18.08
2022-10-17T22:34:17.922Z,16.73
2022-10-17T22:36:48.023Z,17.20
2022-10-17T22:39:14.940Z,16.55
2022-10-17T22:41:43.740Z,17.48
2022-10-17T22:44:10.513Z,17.90
2022-10-17T22:46:37.346Z,17.25
2022-10-17T22:49:04.521Z,17.50
2022-10-17T22:51:32.226Z,16.88
2022-10-17T22:53:58.888Z,15.70
2022-10-17T22:56:25.787Z,17.83
2022-10-17T22:58:55.619Z,18.10
2022-10-17T23:01:25.681Z,18.70
2022-10-17T23:03:56.087Z,18.17
2022-10-17T23:06:23.093Z,19.45
2022-10-17T23:08:52.375Z,19.23
2022-10-17T23:11:20.876Z,17.67
2022-10-17T23:13:47.925Z,18.83
2022-10-17T23:16:14.598Z,20.85
2022-10-17T23:18:41.796Z,20.02
2022-10-17T23:21:08.588Z,18.67
2022-10-17T23:23:36.109Z,20.02
2022-10-17T23:26:12.078Z,21.05
2022-10-17T23:28:40.318Z,20.30
2022-10-17T23:31:19.458Z,21.15
2022-10-17T23:33:49.696Z,20.92
2022-10-17T23:36:20.472Z,21.88
2022-10-17T23:38:52.642Z,21.35
2022-10-17T23:41:21.806Z,21.85
2022-10-17T23:43:48.526Z,21.92
2022-10-17T23:46:15.227Z,22.10
2022-10-17T23:48:41.869Z,22.48
2022-10-17T23:51:10.302Z,23.00
2022-10-17T23:53:39.534Z,22.30
2022-10-17T23:56:09.222Z,25.35
2022-10-17T23:58:36.583Z,20.73
